schwarzau.laxi.at
Wetterdaten: aktuell Dienstag, 18.06.2019 09:05
Datum Zeit Temp. I. Temp. A. SZ Dach Temp. Wind Windchill X Feuchte I. Feuchte A. F.SZ F. Dach Luftdruck Regen Wind Richtung Richtung Taupunkt Windchill Windben
18.06.2019 09:05 21,8 C 17,3 C 20,5 C 19,3 C 23,9 C 23,9 C 66 % 83 % 51 % 60 % 1019,6 hPa 0,0 l/m 0,6 km/h (0 Bft) W 270 14,4 C 23,9 C 0,0 km/h (0 Bft)
18.06.2019 09:00 21,8 C 17,0 C 20,5 C 19,2 C 22,6 C 22,6 C 66 % 82 % 51 % 60 % 1019,8 hPa 0,0 l/m 0,6 km/h (0 Bft) S-SW 202 13,9 C 22,6 C 0,0 km/h (0 Bft)
18.06.2019 08:55 21,7 C 16,5 C 20,5 C 19,0 C 20,6 C 20,6 C 65 % 83 % 50 % 59 % 1019,8 hPa 0,0 l/m 0,3 km/h (0 Bft) W-SW 247 13,6 C 20,6 C 0,0 km/h (0 Bft)
18.06.2019 08:50 21,7 C 16,3 C 20,5 C 18,8 C 19,0 C 19,0 C 65 % 84 % 50 % 59 % 1019,8 hPa 0,0 l/m 0,0 km/h (0 Bft) W 270 13,6 C 19,0 C 0,0 km/h (0 Bft)
18.06.2019 08:45 21,7 C 15,9 C 20,5 C 18,7 C 17,5 C 17,5 C 65 % 84 % 50 % 59 % 1019,8 hPa 0,0 l/m 0,0 km/h (0 Bft) W 270 13,2 C 17,5 C 0,0 km/h (0 Bft)
18.06.2019 08:40 21,8 C 15,8 C 20,5 C 18,5 C 17,2 C 17,2 C 65 % 84 % 50 % 59 % 1020,1 hPa 0,0 l/m 0,0 km/h (0 Bft) W 270 13,1 C 17,2 C 0,0 km/h (0 Bft)
18.06.2019 08:35 21,8 C 15,6 C 20,5 C 18,4 C 16,8 C 16,8 C 65 % 84 % 50 % 59 % 1020,1 hPa 0,0 l/m 0,0 km/h (0 Bft) W 270 12,9 C 16,8 C 0,0 km/h (0 Bft)
18.06.2019 08:30 21,7 C 15,5 C 20,5 C 18,3 C 16,5 C 16,5 C 65 % 84 % 50 % 59 % 1020,1 hPa 0,0 l/m 0,0 km/h (0 Bft) W 270 12,8 C 16,5 C 0,0 km/h (0 Bft)
18.06.2019 08:25 21,8 C 15,2 C 20,5 C 18,2 C 16,1 C 16,1 C 64 % 84 % 50 % 59 % 1020,1 hPa 0,0 l/m 0,0 km/h (0 Bft) S-SW 202 12,5 C 16,1 C 0,0 km/h (0 Bft)
18.06.2019 08:20 21,7 C 15,0 C 20,5 C 18,1 C 15,7 C 15,7 C 64 % 84 % 50 % 59 % 1019,9 hPa 0,0 l/m 0,0 km/h (0 Bft) S-SW 202 12,3 C 15,7 C 0,0 km/h (0 Bft)
18.06.2019 08:15 21,7 C 14,7 C 20,6 C 17,9 C 15,1 C 15,1 C 64 % 84 % 50 % 58 % 1019,9 hPa 0,0 l/m 0,0 km/h (0 Bft) O-NO 67 12,0 C 15,1 C 0,0 km/h (0 Bft)
18.06.2019 08:10 21,8 C 14,6 C 20,6 C 17,9 C 14,8 C 14,8 C 64 % 84 % 50 % 58 % 1019,9 hPa 0,0 l/m 0,0 km/h (0 Bft) O-NO 67 11,9 C 14,8 C 0,0 km/h (0 Bft)
18.06.2019 08:05 21,8 C 14,3 C 20,6 C 17,8 C 14,2 C 14,1 C 63 % 83 % 51 % 58 % 1019,9 hPa 0,0 l/m 0,0 km/h (0 Bft) W 270 11,5 C 14,1 C 0,0 km/h (0 Bft)
18.06.2019 08:00 21,8 C 14,2 C 20,6 C 17,8 C 14,1 C 13,8 C 63 % 84 % 51 % 58 % 1020,1 hPa 0,0 l/m 0,0 km/h (0 Bft) W 270 11,5 C 13,8 C 0,0 km/h (0 Bft)
18.06.2019 07:55 21,8 C 13,9 C 20,6 C 17,7 C 13,7 C 13,3 C 63 % 83 % 50 % 58 % 1020,1 hPa 0,0 l/m 0,0 km/h (0 Bft) W 270 11,1 C 13,3 C 0,0 km/h (0 Bft)
18.06.2019 07:50 21,8 C 13,8 C 20,6 C 17,7 C 13,5 C 12,8 C 63 % 83 % 50 % 58 % 1020,1 hPa 0,0 l/m 0,0 km/h (0 Bft) W 270 11,0 C 12,8 C 0,0 km/h (0 Bft)
18.06.2019 07:45 21,8 C 13,5 C 20,6 C 17,7 C 13,1 C 12,2 C 64 % 84 % 50 % 58 % 1020,1 hPa 0,0 l/m 0,0 km/h (0 Bft) W 270 10,8 C 12,2 C 0,0 km/h (0 Bft)
18.06.2019 07:40 21,9 C 13,5 C 20,6 C 17,7 C 13,0 C 12,0 C 64 % 84 % 51 % 58 % 1020,1 hPa 0,0 l/m 0,0 km/h (0 Bft) W 270 10,8 C 12,0 C 0,0 km/h (0 Bft)
18.06.2019 07:35 21,9 C 13,3 C 20,6 C 17,7 C 12,8 C 11,7 C 64 % 84 % 51 % 58 % 1020,1 hPa 0,0 l/m 0,0 km/h (0 Bft) S-SW 202 10,7 C 11,7 C 0,0 km/h (0 Bft)
18.06.2019 07:30 21,9 C 13,2 C 20,6 C 17,7 C 12,6 C 11,4 C 64 % 84 % 51 % 58 % 1020,1 hPa 0,0 l/m 0,0 km/h (0 Bft) SO 135 10,6 C 11,4 C 0,0 km/h (0 Bft)
18.06.2019 07:25 22,0 C 13,1 C 20,6 C 17,7 C 12,5 C 11,3 C 65 % 83 % 51 % 58 % 1020,1 hPa 0,0 l/m 0,0 km/h (0 Bft) S 180 10,3 C 11,3 C 0,0 km/h (0 Bft)
18.06.2019 07:20 22,0 C 13,1 C 20,6 C 17,7 C 12,5 C 11,3 C 65 % 83 % 51 % 58 % 1020,4 hPa 0,0 l/m 0,0 km/h (0 Bft) S 180 10,3 C 11,3 C 0,0 km/h (0 Bft)
18.06.2019 07:15 22,0 C 13,1 C 20,7 C 17,7 C 12,5 C 11,2 C 66 % 83 % 51 % 57 % 1020,4 hPa 0,0 l/m 0,0 km/h (0 Bft) SO 135 10,3 C 11,2 C 0,0 km/h (0 Bft)
18.06.2019 07:10 22,0 C 13,1 C 20,7 C 17,7 C 12,5 C 11,2 C 66 % 83 % 51 % 57 % 1020,4 hPa 0,0 l/m 0,0 km/h (0 Bft) S 180 10,3 C 11,2 C 0,0 km/h (0 Bft)
18.06.2019 07:05 22,1 C 13,1 C 20,7 C 17,7 C 12,4 C 11,1 C 66 % 83 % 51 % 57 % 1020,4 hPa 0,0 l/m 0,3 km/h (0 Bft) S 180 10,3 C 11,1 C 0,0 km/h (0 Bft)
18.06.2019 07:00 22,1 C 13,0 C 20,7 C 17,7 C 12,3 C 11,0 C 67 % 82 % 51 % 57 % 1020,5 hPa 0,0 l/m 0,3 km/h (0 Bft) S-SO 157 10,0 C 11,0 C 0,0 km/h (0 Bft)
18.06.2019 06:55 22,1 C 13,1 C 20,7 C 17,7 C 12,4 C 10,9 C 66 % 82 % 51 % 57 % 1020,5 hPa 0,0 l/m 0,0 km/h (0 Bft) S 180 10,1 C 10,9 C 0,0 km/h (0 Bft)
18.06.2019 06:50 22,1 C 13,1 C 20,7 C 17,7 C 12,4 C 10,9 C 66 % 82 % 51 % 56 % 1020,5 hPa 0,0 l/m 0,0 km/h (0 Bft) S-SO 157 10,1 C 10,9 C 0,0 km/h (0 Bft)
18.06.2019 06:45 22,2 C 13,1 C 20,7 C 17,7 C 12,4 C 10,9 C 66 % 82 % 51 % 56 % 1020,5 hPa 0,0 l/m 0,0 km/h (0 Bft) S-SW 202 10,1 C 10,9 C 0,0 km/h (0 Bft)
18.06.2019 06:40 22,1 C 13,1 C 20,7 C 17,7 C 12,4 C 10,9 C 66 % 82 % 51 % 56 % 1020,4 hPa 0,0 l/m 0,0 km/h (0 Bft) S-SO 157 10,1 C 10,9 C 0,0 km/h (0 Bft)
18.06.2019 06:35 22,2 C 13,1 C 20,7 C 17,8 C 12,4 C 10,9 C 66 % 82 % 51 % 56 % 1020,4 hPa 0,0 l/m 0,0 km/h (0 Bft) O-NO 67 10,1 C 10,9 C 0,0 km/h (0 Bft)
18.06.2019 06:30 22,2 C 13,1 C 20,7 C 17,8 C 12,4 C 10,9 C 66 % 82 % 51 % 56 % 1020,4 hPa 0,0 l/m 0,0 km/h (0 Bft) S-SO 157 10,1 C 10,9 C 0,0 km/h (0 Bft)
18.06.2019 06:25 22,2 C 13,1 C 20,7 C 17,8 C 12,3 C 10,8 C 66 % 82 % 50 % 56 % 1020,4 hPa 0,0 l/m 0,0 km/h (0 Bft) S 180 10,1 C 10,8 C 0,0 km/h (0 Bft)
18.06.2019 06:20 22,2 C 13,1 C 20,7 C 17,8 C 12,4 C 10,9 C 66 % 82 % 50 % 56 % 1020,2 hPa 0,0 l/m 0,0 km/h (0 Bft) S-SO 157 10,1 C 10,9 C 0,0 km/h (0 Bft)
18.06.2019 06:15 22,2 C 13,1 C 20,7 C 17,8 C 12,4 C 10,9 C 66 % 82 % 50 % 56 % 1020,2 hPa 0,0 l/m 0,0 km/h (0 Bft) NO 45 10,1 C 10,9 C 0,0 km/h (0 Bft)
18.06.2019 06:10 22,2 C 13,1 C 20,7 C 17,8 C 12,3 C 10,8 C 66 % 82 % 50 % 56 % 1020,2 hPa 0,0 l/m 0,0 km/h (0 Bft) NO 45 10,1 C 10,8 C 0,0 km/h (0 Bft)
18.06.2019 06:05 22,2 C 13,1 C 20,7 C 17,9 C 12,3 C 10,8 C 66 % 82 % 50 % 56 % 1020,2 hPa 0,0 l/m 0,0 km/h (0 Bft) S-SO 157 10,1 C 10,8 C 0,0 km/h (0 Bft)
18.06.2019 06:00 22,2 C 13,1 C 20,7 C 17,9 C 12,3 C 10,7 C 66 % 82 % 51 % 56 % 1020,2 hPa 0,0 l/m 0,0 km/h (0 Bft) S-SO 157 10,1 C 10,7 C 0,0 km/h (0 Bft)
18.06.2019 05:55 22,2 C 13,1 C 20,7 C 17,9 C 12,3 C 10,6 C 66 % 82 % 51 % 55 % 1020,2 hPa 0,0 l/m 0,0 km/h (0 Bft) S-SO 157 10,1 C 10,6 C 0,0 km/h (0 Bft)
18.06.2019 05:50 22,2 C 13,1 C 20,7 C 17,9 C 12,3 C 10,6 C 66 % 82 % 50 % 55 % 1020,2 hPa 0,0 l/m 0,0 km/h (0 Bft) S 180 10,1 C 10,6 C 0,0 km/h (0 Bft)
18.06.2019 05:45 22,2 C 13,1 C 20,6 C 18,0 C 12,3 C 10,6 C 67 % 82 % 50 % 55 % 1020,2 hPa 0,0 l/m 0,0 km/h (0 Bft) S 180 10,1 C 10,6 C 0,0 km/h (0 Bft)
18.06.2019 05:40 22,2 C 13,1 C 20,6 C 18,0 C 12,3 C 10,6 C 67 % 82 % 50 % 55 % 1020,2 hPa 0,0 l/m 0,3 km/h (0 Bft) S 180 10,1 C 10,6 C 0,0 km/h (0 Bft)
18.06.2019 05:35 22,3 C 13,3 C 20,6 C 18,1 C 12,4 C 10,6 C 67 % 81 % 50 % 55 % 1020,2 hPa 0,0 l/m 0,3 km/h (0 Bft) SO 135 10,1 C 10,6 C 0,0 km/h (0 Bft)
18.06.2019 05:30 22,2 C 13,2 C 20,6 C 18,1 C 12,3 C 10,5 C 67 % 82 % 50 % 55 % 1020,2 hPa 0,0 l/m 0,0 km/h (0 Bft) SO 135 10,2 C 10,5 C 0,0 km/h (0 Bft)
18.06.2019 05:25 22,3 C 13,1 C 20,6 C 18,1 C 12,2 C 10,5 C 67 % 82 % 50 % 55 % 1020,2 hPa 0,0 l/m 0,0 km/h (0 Bft) SO 135 10,1 C 10,5 C 0,0 km/h (0 Bft)
18.06.2019 05:20 22,3 C 13,2 C 20,6 C 18,2 C 12,3 C 10,6 C 67 % 82 % 50 % 55 % 1020,4 hPa 0,0 l/m 0,0 km/h (0 Bft) SO 135 10,2 C 10,6 C 0,0 km/h (0 Bft)
18.06.2019 05:15 22,3 C 13,2 C 20,6 C 18,2 C 12,3 C 10,6 C 67 % 82 % 50 % 55 % 1020,4 hPa 0,0 l/m 0,0 km/h (0 Bft) SO 135 10,2 C 10,6 C 0,0 km/h (0 Bft)
18.06.2019 05:10 22,3 C 13,2 C 20,6 C 18,2 C 12,3 C 10,6 C 67 % 82 % 50 % 55 % 1020,4 hPa 0,0 l/m 0,0 km/h (0 Bft) SO 135 10,2 C 10,6 C 0,0 km/h (0 Bft)
18.06.2019 05:05 22,2 C 13,2 C 20,6 C 18,3 C 12,4 C 10,7 C 67 % 82 % 50 % 55 % 1020,4 hPa 0,0 l/m 0,0 km/h (0 Bft) S 180 10,2 C 10,7 C 0,0 km/h (0 Bft)
18.06.2019 05:00 22,2 C 13,2 C 20,6 C 18,3 C 12,4 C 10,8 C 67 % 82 % 50 % 55 % 1020,3 hPa 0,0 l/m 0,3 km/h (0 Bft) S 180 10,2 C 10,8 C 0,0 km/h (0 Bft)
18.06.2019 04:55 22,2 C 13,4 C 20,6 C 18,3 C 12,5 C 10,8 C 67 % 82 % 50 % 55 % 1020,3 hPa 0,0 l/m 0,6 km/h (0 Bft) S 180 10,4 C 10,8 C 0,0 km/h (0 Bft)
18.06.2019 04:50 22,4 C 13,4 C 20,6 C 18,4 C 12,5 C 10,8 C 67 % 82 % 50 % 55 % 1020,3 hPa 0,0 l/m 0,3 km/h (0 Bft) S-SO 157 10,4 C 10,8 C 0,0 km/h (0 Bft)
18.06.2019 04:45 22,2 C 13,3 C 20,6 C 18,5 C 12,5 C 10,8 C 67 % 82 % 50 % 54 % 1020,3 hPa 0,0 l/m 0,3 km/h (0 Bft) S-SO 157 10,3 C 10,8 C 4,8 km/h (1 Bft)
18.06.2019 04:40 22,4 C 13,3 C 20,6 C 18,5 C 12,5 C 10,8 C 67 % 82 % 50 % 54 % 1020,2 hPa 0,0 l/m 0,0 km/h (0 Bft) S 180 10,3 C 10,8 C 0,0 km/h (0 Bft)
18.06.2019 04:35 22,4 C 13,3 C 20,5 C 18,6 C 12,5 C 10,8 C 67 % 82 % 50 % 54 % 1020,2 hPa 0,0 l/m 0,0 km/h (0 Bft) S 180 10,3 C 10,8 C 0,0 km/h (0 Bft)
18.06.2019 04:30 22,4 C 13,3 C 20,5 C 18,6 C 12,5 C 10,8 C 67 % 82 % 50 % 54 % 1020,2 hPa 0,0 l/m 0,0 km/h (0 Bft) S-SO 157 10,3 C 10,8 C 0,0 km/h (0 Bft)
18.06.2019 04:25 22,4 C 13,4 C 20,5 C 18,7 C 12,5 C 10,8 C 67 % 82 % 50 % 54 % 1020,2 hPa 0,0 l/m 0,0 km/h (0 Bft) SO 135 10,4 C 10,8 C 0,0 km/h (0 Bft)
18.06.2019 04:20 22,4 C 13,3 C 20,4 C 18,7 C 12,5 C 10,8 C 67 % 82 % 50 % 54 % 1020,3 hPa 0,0 l/m 0,0 km/h (0 Bft) SO 135 10,3 C 10,8 C 0,0 km/h (0 Bft)
18.06.2019 04:15 22,4 C 13,5 C 20,4 C 18,7 C 12,6 C 10,9 C 67 % 81 % 49 % 54 % 1020,3 hPa 0,0 l/m 0,6 km/h (0 Bft) SO 135 10,3 C 10,9 C 0,0 km/h (0 Bft)
18.06.2019 04:10 22,4 C 13,5 C 20,4 C 18,8 C 12,7 C 11,0 C 67 % 82 % 49 % 54 % 1020,3 hPa 0,0 l/m 0,6 km/h (0 Bft) SO 135 10,5 C 11,0 C 0,0 km/h (0 Bft)
18.06.2019 04:05 22,4 C 13,5 C 20,4 C 18,9 C 12,6 C 10,9 C 67 % 81 % 49 % 54 % 1020,3 hPa 0,0 l/m 0,3 km/h (0 Bft) SO 135 10,3 C 10,9 C 0,0 km/h (0 Bft)
18.06.2019 04:00 22,4 C 13,6 C 20,4 C 18,9 C 12,7 C 10,9 C 67 % 81 % 49 % 54 % 1020,6 hPa 0,0 l/m 0,0 km/h (0 Bft) S-SO 157 10,4 C 10,9 C 0,0 km/h (0 Bft)
18.06.2019 03:55 22,4 C 13,7 C 20,4 C 19,0 C 12,8 C 11,0 C 67 % 81 % 49 % 54 % 1020,6 hPa 0,0 l/m 0,0 km/h (0 Bft) S-SO 157 10,5 C 11,0 C 0,0 km/h (0 Bft)
18.06.2019 03:50 22,4 C 13,6 C 20,4 C 19,1 C 12,8 C 11,1 C 67 % 81 % 49 % 54 % 1020,6 hPa 0,0 l/m 0,0 km/h (0 Bft) S-SO 157 10,4 C 11,1 C 0,0 km/h (0 Bft)
18.06.2019 03:45 22,4 C 13,8 C 20,3 C 19,1 C 12,9 C 11,1 C 67 % 81 % 49 % 54 % 1020,6 hPa 0,0 l/m 0,0 km/h (0 Bft) SO 135 10,6 C 11,1 C 0,0 km/h (0 Bft)
18.06.2019 03:40 22,4 C 13,8 C 20,3 C 19,2 C 12,9 C 11,2 C 67 % 81 % 49 % 54 % 1020,9 hPa 0,0 l/m 1,0 km/h (0 Bft) SO 135 10,6 C 11,2 C 0,0 km/h (0 Bft)
18.06.2019 03:35 22,4 C 13,7 C 20,3 C 19,3 C 12,9 C 11,2 C 67 % 81 % 49 % 54 % 1020,9 hPa 0,0 l/m 1,9 km/h (1 Bft) S 180 10,5 C 11,2 C 6,1 km/h (2 Bft)
18.06.2019 03:30 22,5 C 13,9 C 20,3 C 19,3 C 13,0 C 11,2 C 67 % 80 % 49 % 54 % 1020,9 hPa 0,0 l/m 1,6 km/h (1 Bft) S-SO 157 10,5 C 11,2 C 5,8 km/h (2 Bft)
18.06.2019 03:25 22,5 C 14,1 C 20,3 C 19,4 C 13,1 C 11,2 C 67 % 81 % 49 % 54 % 1020,9 hPa 0,0 l/m 0,6 km/h (0 Bft) SO 135 10,9 C 11,2 C 3,2 km/h (1 Bft)
18.06.2019 03:20 22,5 C 14,1 C 20,3 C 19,4 C 13,1 C 11,2 C 67 % 81 % 49 % 53 % 1020,8 hPa 0,0 l/m 0,3 km/h (0 Bft) SO 135 10,9 C 11,2 C 3,2 km/h (1 Bft)
18.06.2019 03:15 22,5 C 14,1 C 20,2 C 19,5 C 13,2 C 11,3 C 67 % 81 % 49 % 54 % 1020,8 hPa 0,0 l/m 0,0 km/h (0 Bft) SO 135 10,9 C 11,3 C 0,0 km/h (0 Bft)
18.06.2019 03:10 22,5 C 14,2 C 20,2 C 19,5 C 13,3 C 11,4 C 67 % 81 % 49 % 53 % 1020,8 hPa 0,0 l/m 0,0 km/h (0 Bft) S-SO 157 11,0 C 11,4 C 0,0 km/h (0 Bft)
18.06.2019 03:05 22,5 C 14,2 C 20,3 C 19,7 C 13,3 C 11,5 C 67 % 81 % 49 % 53 % 1020,8 hPa 0,0 l/m 0,0 km/h (0 Bft) S-SO 157 11,0 C 11,5 C 0,0 km/h (0 Bft)
18.06.2019 03:00 22,5 C 14,3 C 20,3 C 19,7 C 13,4 C 11,5 C 67 % 80 % 49 % 53 % 1021,0 hPa 0,0 l/m 0,0 km/h (0 Bft) SO 135 10,9 C 11,5 C 0,0 km/h (0 Bft)
18.06.2019 02:55 22,5 C 14,4 C 20,3 C 19,7 C 13,5 C 11,6 C 67 % 80 % 49 % 53 % 1021,0 hPa 0,0 l/m 0,0 km/h (0 Bft) SO 135 11,0 C 11,6 C 0,0 km/h (0 Bft)
18.06.2019 02:50 22,5 C 14,4 C 20,3 C 19,8 C 13,5 C 11,7 C 67 % 80 % 48 % 53 % 1021,0 hPa 0,0 l/m 0,0 km/h (0 Bft) S 180 11,0 C 11,7 C 0,0 km/h (0 Bft)
18.06.2019 02:45 22,6 C 14,5 C 20,3 C 19,9 C 13,6 C 11,7 C 67 % 80 % 48 % 53 % 1021,0 hPa 0,0 l/m 0,0 km/h (0 Bft) S-SO 157 11,1 C 11,7 C 0,0 km/h (0 Bft)
18.06.2019 02:40 22,5 C 14,6 C 20,3 C 19,9 C 13,7 C 11,8 C 67 % 81 % 49 % 53 % 1020,9 hPa 0,0 l/m 0,0 km/h (0 Bft) SO 135 11,4 C 11,8 C 0,0 km/h (0 Bft)
18.06.2019 02:35 22,6 C 14,6 C 20,4 C 20,0 C 13,7 C 11,8 C 67 % 81 % 49 % 53 % 1020,9 hPa 0,0 l/m 0,0 km/h (0 Bft) W 270 11,4 C 11,8 C 0,0 km/h (0 Bft)
18.06.2019 02:30 22,5 C 14,6 C 20,3 C 20,1 C 13,7 C 11,9 C 67 % 81 % 48 % 53 % 1020,9 hPa 0,0 l/m 0,0 km/h (0 Bft) W 270 11,4 C 11,9 C 0,0 km/h (0 Bft)
18.06.2019 02:25 22,6 C 14,6 C 20,3 C 20,2 C 13,7 C 12,0 C 67 % 81 % 48 % 53 % 1020,9 hPa 0,0 l/m 0,0 km/h (0 Bft) W 270 11,4 C 12,0 C 0,0 km/h (0 Bft)
18.06.2019 02:20 22,6 C 14,7 C 20,3 C 20,2 C 13,8 C 12,0 C 67 % 81 % 48 % 53 % 1021,3 hPa 0,0 l/m 0,0 km/h (0 Bft) NW 315 11,5 C 12,0 C 0,0 km/h (0 Bft)
18.06.2019 02:15 22,6 C 14,7 C 20,5 C 20,3 C 13,8 C 12,0 C 67 % 81 % 49 % 52 % 1021,3 hPa 0,0 l/m 0,0 km/h (0 Bft) S-SW 202 11,5 C 12,0 C 0,0 km/h (0 Bft)
18.06.2019 02:10 22,6 C 14,6 C 20,5 C 20,4 C 13,7 C 12,0 C 67 % 81 % 49 % 53 % 1021,3 hPa 0,0 l/m 0,0 km/h (0 Bft) S-SW 202 11,4 C 12,0 C 0,0 km/h (0 Bft)
18.06.2019 02:05 22,6 C 14,8 C 20,6 C 20,4 C 13,9 C 12,0 C 67 % 80 % 49 % 53 % 1021,3 hPa 0,0 l/m 0,0 km/h (0 Bft) O-SO 112 11,4 C 12,0 C 0,0 km/h (0 Bft)
18.06.2019 02:00 22,6 C 14,9 C 20,6 C 20,5 C 14,0 C 12,2 C 67 % 80 % 49 % 53 % 1021,2 hPa 0,0 l/m 0,0 km/h (0 Bft) S 180 11,5 C 12,2 C 0,0 km/h (0 Bft)
18.06.2019 01:55 22,6 C 14,9 C 20,6 C 20,6 C 14,0 C 12,2 C 67 % 80 % 48 % 52 % 1021,2 hPa 0,0 l/m 0,0 km/h (0 Bft) SO 135 11,5 C 12,2 C 0,0 km/h (0 Bft)
18.06.2019 01:50 22,6 C 14,9 C 20,6 C 20,6 C 14,0 C 12,2 C 67 % 80 % 48 % 52 % 1021,2 hPa 0,0 l/m 0,0 km/h (0 Bft) S-SO 157 11,5 C 12,2 C 0,0 km/h (0 Bft)
18.06.2019 01:45 22,6 C 15,1 C 20,6 C 20,7 C 14,2 C 12,4 C 67 % 80 % 47 % 52 % 1021,2 hPa 0,0 l/m 0,0 km/h (0 Bft) S 180 11,7 C 12,4 C 0,0 km/h (0 Bft)
18.06.2019 01:40 22,6 C 15,2 C 20,5 C 20,8 C 14,3 C 12,5 C 67 % 80 % 47 % 52 % 1021,4 hPa 0,0 l/m 0,0 km/h (0 Bft) S 180 11,8 C 12,5 C 0,0 km/h (0 Bft)
18.06.2019 01:35 22,6 C 15,3 C 20,6 C 20,9 C 14,4 C 12,6 C 67 % 80 % 47 % 52 % 1021,4 hPa 0,0 l/m 0,0 km/h (0 Bft) S-SO 157 11,9 C 12,6 C 0,0 km/h (0 Bft)
18.06.2019 01:30 22,6 C 15,3 C 20,7 C 20,9 C 14,4 C 12,6 C 67 % 80 % 47 % 52 % 1021,4 hPa 0,0 l/m 0,0 km/h (0 Bft) S 180 11,9 C 12,6 C 0,0 km/h (0 Bft)
18.06.2019 01:25 22,7 C 15,3 C 20,8 C 21,0 C 14,4 C 12,6 C 67 % 80 % 47 % 52 % 1021,4 hPa 0,0 l/m 0,0 km/h (0 Bft) S 180 11,9 C 12,6 C 0,0 km/h (0 Bft)
18.06.2019 01:20 22,7 C 15,3 C 20,8 C 21,1 C 14,5 C 12,8 C 67 % 80 % 47 % 52 % 1021,6 hPa 0,0 l/m 0,0 km/h (0 Bft) S 180 11,9 C 12,8 C 0,0 km/h (0 Bft)
18.06.2019 01:15 22,7 C 15,4 C 20,8 C 21,2 C 14,5 C 12,8 C 68 % 80 % 46 % 51 % 1021,6 hPa 0,0 l/m 0,0 km/h (0 Bft) SO 135 12,0 C 12,8 C 0,0 km/h (0 Bft)
18.06.2019 01:10 22,7 C 15,4 C 20,9 C 21,2 C 14,5 C 12,8 C 68 % 80 % 47 % 51 % 1021,6 hPa 0,0 l/m 0,0 km/h (0 Bft) SO 135 12,0 C 12,8 C 0,0 km/h (0 Bft)
18.06.2019 01:05 22,7 C 15,5 C 21,0 C 21,3 C 14,6 C 12,8 C 68 % 79 % 47 % 51 % 1021,6 hPa 0,0 l/m 0,0 km/h (0 Bft) S-SO 157 11,9 C 12,8 C 0,0 km/h (0 Bft)
18.06.2019 01:00 22,7 C 15,5 C 21,1 C 21,4 C 14,6 C 12,8 C 68 % 79 % 47 % 51 % 1021,4 hPa 0,0 l/m 0,0 km/h (0 Bft) SO 135 11,9 C 12,8 C 0,0 km/h (0 Bft)
18.06.2019 00:55 22,7 C 15,6 C 21,2 C 21,5 C 14,7 C 12,9 C 68 % 79 % 47 % 51 % 1021,4 hPa 0,0 l/m 0,0 km/h (0 Bft) SO 135 12,0 C 12,9 C 0,0 km/h (0 Bft)
18.06.2019 00:50 22,7 C 15,7 C 21,3 C 21,6 C 14,8 C 12,9 C 68 % 79 % 47 % 50 % 1021,4 hPa 0,0 l/m 0,0 km/h (0 Bft) SO 135 12,1 C 12,9 C 0,0 km/h (0 Bft)
18.06.2019 00:45 22,7 C 15,8 C 21,4 C 21,7 C 14,9 C 13,0 C 68 % 79 % 48 % 50 % 1021,4 hPa 0,0 l/m 0,0 km/h (0 Bft) SW 225 12,2 C 13,0 C 0,0 km/h (0 Bft)
18.06.2019 00:40 22,7 C 15,8 C 21,6 C 21,7 C 14,9 C 13,2 C 68 % 79 % 49 % 50 % 1021,7 hPa 0,0 l/m 0,0 km/h (0 Bft) W-NW 292 12,2 C 13,2 C 0,0 km/h (0 Bft)
18.06.2019 00:35 22,8 C 15,9 C 21,8 C 21,9 C 15,0 C 13,2 C 68 % 79 % 49 % 50 % 1021,7 hPa 0,0 l/m 0,6 km/h (0 Bft) S-SW 202 12,3 C 13,2 C 0,0 km/h (0 Bft)
18.06.2019 00:30 22,8 C 15,9 C 21,8 C 21,9 C 15,1 C 13,4 C 68 % 79 % 49 % 50 % 1021,7 hPa 0,0 l/m 0,6 km/h (0 Bft) S-SW 202 12,3 C 13,4 C 0,0 km/h (0 Bft)
18.06.2019 00:25 22,8 C 16,0 C 21,8 C 22,0 C 15,1 C 13,4 C 68 % 78 % 49 % 50 % 1021,7 hPa 0,0 l/m 0,0 km/h (0 Bft) S-SO 157 12,2 C 13,4 C 3,9 km/h (1 Bft)
18.06.2019 00:20 22,8 C 16,1 C 21,8 C 22,1 C 15,2 C 13,4 C 68 % 78 % 49 % 50 % 1021,5 hPa 0,0 l/m 0,0 km/h (0 Bft) S-SO 157 12,3 C 13,4 C 0,0 km/h (0 Bft)
18.06.2019 00:15 22,8 C 16,3 C 21,8 C 22,2 C 15,4 C 13,6 C 68 % 78 % 49 % 50 % 1021,5 hPa 0,0 l/m 0,0 km/h (0 Bft) SO 135 12,5 C 13,6 C 0,0 km/h (0 Bft)
18.06.2019 00:10 22,8 C 16,3 C 21,7 C 22,3 C 15,5 C 13,8 C 68 % 78 % 49 % 49 % 1021,5 hPa 0,0 l/m 0,0 km/h (0 Bft) S 180 12,5 C 13,8 C 0,0 km/h (0 Bft)
18.06.2019 00:05 22,8 C 16,4 C 21,7 C 22,4 C 15,6 C 13,9 C 68 % 78 % 49 % 49 % 1021,5 hPa 0,0 l/m 0,0 km/h (0 Bft) NW 315 12,6 C 13,9 C 0,0 km/h (0 Bft)
18.06.2019 00:00 22,8 C 16,4 C 21,7 C 22,5 C 15,6 C 14,0 C 68 % 78 % 49 % 49 % 1021,7 hPa 0,0 l/m 0,0 km/h (0 Bft) SW 225 12,6 C 14,0 C 0,0 km/h (0 Bft)
17.06.2019 23:55 22,8 C 16,5 C 21,7 C 22,6 C 15,7 C 14,1 C 68 % 77 % 49 % 49 % 1021,7 hPa 0,0 l/m 0,0 km/h (0 Bft) S-SW 202 12,5 C 14,1 C 0,0 km/h (0 Bft)
17.06.2019 23:50 22,8 C 16,6 C 21,7 C 22,7 C 15,8 C 14,2 C 68 % 77 % 49 % 49 % 1021,7 hPa 0,0 l/m 0,0 km/h (0 Bft) S 180 12,5 C 14,2 C 0,0 km/h (0 Bft)
17.06.2019 23:45 22,8 C 16,7 C 21,7 C 22,8 C 15,9 C 14,3 C 69 % 77 % 49 % 49 % 1021,7 hPa 0,0 l/m 0,0 km/h (0 Bft) S-SO 157 12,6 C 14,3 C 0,0 km/h (0 Bft)
17.06.2019 23:40 22,8 C 16,7 C 21,7 C 22,9 C 15,9 C 14,4 C 69 % 77 % 49 % 49 % 1021,9 hPa 0,0 l/m 0,0 km/h (0 Bft) S 180 12,6 C 14,4 C 0,0 km/h (0 Bft)
17.06.2019 23:35 22,9 C 16,9 C 21,7 C 23,0 C 16,1 C 14,4 C 69 % 77 % 49 % 48 % 1021,9 hPa 0,0 l/m 0,3 km/h (0 Bft) S 180 12,8 C 14,4 C 0,0 km/h (0 Bft)
17.06.2019 23:30 22,9 C 16,9 C 21,7 C 23,1 C 16,1 C 14,5 C 69 % 76 % 49 % 48 % 1021,9 hPa 0,0 l/m 0,3 km/h (0 Bft) SO 135 12,6 C 14,5 C 0,0 km/h (0 Bft)
17.06.2019 23:25 22,9 C 16,9 C 21,7 C 23,2 C 16,1 C 14,5 C 69 % 76 % 49 % 48 % 1021,9 hPa 0,0 l/m 0,0 km/h (0 Bft) SO 135 12,6 C 14,5 C 0,0 km/h (0 Bft)
17.06.2019 23:20 22,9 C 17,0 C 21,7 C 23,3 C 16,2 C 14,6 C 69 % 76 % 49 % 48 % 1022,3 hPa 0,0 l/m 0,0 km/h (0 Bft) W-NW 292 12,7 C 14,6 C 0,0 km/h (0 Bft)
17.06.2019 23:15 22,9 C 17,0 C 21,6 C 23,4 C 16,2 C 14,6 C 69 % 76 % 49 % 48 % 1022,3 hPa 0,0 l/m 0,0 km/h (0 Bft) SW 225 12,7 C 14,6 C 0,0 km/h (0 Bft)
17.06.2019 23:10 22,9 C 17,1 C 21,6 C 23,5 C 16,3 C 14,7 C 69 % 76 % 49 % 48 % 1022,3 hPa 0,0 l/m 0,0 km/h (0 Bft) SO 135 12,8 C 14,7 C 0,0 km/h (0 Bft)
17.06.2019 23:05 22,9 C 17,2 C 21,6 C 23,7 C 16,4 C 14,8 C 70 % 76 % 49 % 48 % 1022,3 hPa 0,0 l/m 0,0 km/h (0 Bft) S-SW 202 12,9 C 14,8 C 0,0 km/h (0 Bft)
17.06.2019 23:00 22,9 C 17,3 C 21,6 C 23,8 C 16,5 C 14,9 C 70 % 75 % 49 % 48 % 1021,5 hPa 0,0 l/m 0,0 km/h (0 Bft) S-SO 157 12,8 C 14,9 C 0,0 km/h (0 Bft)
17.06.2019 22:55 22,8 C 17,4 C 21,6 C 23,9 C 16,6 C 15,0 C 70 % 75 % 49 % 48 % 1021,5 hPa 0,0 l/m 0,6 km/h (0 Bft) S 180 12,9 C 15,0 C 0,0 km/h (0 Bft)
17.06.2019 22:50 22,8 C 17,4 C 21,6 C 24,0 C 16,6 C 15,0 C 70 % 75 % 49 % 48 % 1021,5 hPa 0,0 l/m 0,6 km/h (0 Bft) S-SW 202 12,9 C 15,0 C 0,0 km/h (0 Bft)
17.06.2019 22:45 22,8 C 17,6 C 21,6 C 24,1 C 16,8 C 15,1 C 70 % 74 % 49 % 48 % 1021,5 hPa 0,0 l/m 0,0 km/h (0 Bft) SO 135 12,9 C 15,1 C 0,0 km/h (0 Bft)
17.06.2019 22:40 22,8 C 17,7 C 21,6 C 24,3 C 16,8 C 15,1 C 70 % 74 % 49 % 48 % 1021,6 hPa 0,0 l/m 0,0 km/h (0 Bft) SO 135 13,0 C 15,1 C 0,0 km/h (0 Bft)
17.06.2019 22:35 22,7 C 17,7 C 21,6 C 24,4 C 16,9 C 15,2 C 70 % 74 % 49 % 48 % 1021,6 hPa 0,0 l/m 0,0 km/h (0 Bft) SO 135 13,0 C 15,2 C 0,0 km/h (0 Bft)
17.06.2019 22:30 22,7 C 17,7 C 21,6 C 24,5 C 16,9 C 15,3 C 69 % 74 % 49 % 48 % 1021,6 hPa 0,0 l/m 0,0 km/h (0 Bft) S-SO 157 13,0 C 15,3 C 0,0 km/h (0 Bft)
17.06.2019 22:25 22,6 C 17,9 C 21,6 C 24,6 C 17,1 C 15,4 C 69 % 74 % 49 % 48 % 1021,6 hPa 0,0 l/m 0,0 km/h (0 Bft) S-SO 157 13,2 C 15,4 C 0,0 km/h (0 Bft)
17.06.2019 22:20 22,6 C 18,0 C 21,5 C 24,7 C 17,2 C 15,6 C 68 % 74 % 49 % 48 % 1021,4 hPa 0,0 l/m 0,0 km/h (0 Bft) S 180 13,3 C 15,6 C 0,0 km/h (0 Bft)
17.06.2019 22:15 22,6 C 18,1 C 21,5 C 24,9 C 17,3 C 15,6 C 68 % 74 % 49 % 49 % 1021,4 hPa 0,0 l/m 0,0 km/h (0 Bft) S-SO 157 13,4 C 15,6 C 0,0 km/h (0 Bft)
17.06.2019 22:10 22,6 C 18,1 C 21,5 C 25,0 C 17,3 C 15,7 C 67 % 74 % 49 % 49 % 1021,4 hPa 0,0 l/m 0,0 km/h (0 Bft) S 180 13,4 C 15,7 C 0,0 km/h (0 Bft)
17.06.2019 22:05 22,6 C 18,3 C 21,5 C 25,1 C 17,5 C 15,8 C 67 % 73 % 49 % 48 % 1021,4 hPa 0,0 l/m 0,0 km/h (0 Bft) S 180 13,4 C 15,8 C 0,0 km/h (0 Bft)
17.06.2019 22:00 22,6 C 18,4 C 21,5 C 25,3 C 17,6 C 16,0 C 67 % 73 % 49 % 48 % 1021,4 hPa 0,0 l/m 0,0 km/h (0 Bft) S 180 13,5 C 16,0 C 0,0 km/h (0 Bft)
17.06.2019 21:55 22,6 C 18,5 C 21,5 C 25,5 C 17,7 C 16,2 C 67 % 73 % 49 % 48 % 1021,4 hPa 0,0 l/m 0,0 km/h (0 Bft) S 180 13,6 C 16,2 C 0,0 km/h (0 Bft)
17.06.2019 21:50 22,6 C 18,7 C 21,4 C 25,6 C 17,9 C 16,3 C 67 % 72 % 49 % 48 % 1021,4 hPa 0,0 l/m 0,0 km/h (0 Bft) S-SW 202 13,5 C 16,3 C 0,0 km/h (0 Bft)
17.06.2019 21:45 22,6 C 18,8 C 21,3 C 25,7 C 18,0 C 16,5 C 67 % 72 % 49 % 48 % 1021,4 hPa 0,0 l/m 0,0 km/h (0 Bft) SW 225 13,6 C 16,5 C 0,0 km/h (0 Bft)
17.06.2019 21:40 22,6 C 19,0 C 21,3 C 25,9 C 18,2 C 16,6 C 67 % 72 % 49 % 47 % 1021,4 hPa 0,0 l/m 0,0 km/h (0 Bft) S-SO 157 13,8 C 16,6 C 0,0 km/h (0 Bft)
17.06.2019 21:35 22,6 C 19,1 C 21,2 C 26,0 C 18,3 C 16,8 C 67 % 71 % 49 % 47 % 1021,4 hPa 0,0 l/m 0,0 km/h (0 Bft) S-SO 157 13,7 C 16,8 C 0,0 km/h (0 Bft)
17.06.2019 21:30 22,6 C 19,2 C 21,2 C 26,2 C 18,5 C 17,0 C 67 % 71 % 49 % 47 % 1021,4 hPa 0,0 l/m 0,0 km/h (0 Bft) S-SO 157 13,8 C 17,0 C 0,0 km/h (0 Bft)
17.06.2019 21:25 22,6 C 19,3 C 21,1 C 26,4 C 18,6 C 17,2 C 67 % 71 % 49 % 46 % 1021,4 hPa 0,0 l/m 0,0 km/h (0 Bft) S-SW 202 13,9 C 17,2 C 0,0 km/h (0 Bft)
17.06.2019 21:20 22,6 C 19,4 C 21,0 C 26,5 C 18,7 C 17,3 C 67 % 70 % 49 % 46 % 1021,2 hPa 0,0 l/m 0,0 km/h (0 Bft) SW 225 13,8 C 17,3 C 0,0 km/h (0 Bft)
17.06.2019 21:15 22,6 C 19,5 C 21,0 C 26,7 C 18,9 C 17,7 C 67 % 70 % 49 % 46 % 1021,2 hPa 0,0 l/m 0,0 km/h (0 Bft) SW 225 13,9 C 17,7 C 0,0 km/h (0 Bft)
17.06.2019 21:10 22,7 C 19,6 C 21,0 C 26,8 C 19,0 C 17,8 C 67 % 70 % 49 % 45 % 1021,2 hPa 0,0 l/m 0,3 km/h (0 Bft) NW 315 14,0 C 17,8 C 0,0 km/h (0 Bft)
17.06.2019 21:05 22,7 C 19,7 C 20,8 C 27,0 C 19,1 C 18,0 C 67 % 69 % 49 % 45 % 1021,2 hPa 0,0 l/m 0,6 km/h (0 Bft) NW 315 13,8 C 18,0 C 0,0 km/h (0 Bft)
17.06.2019 21:00 22,7 C 19,8 C 20,8 C 27,1 C 19,2 C 18,0 C 67 % 69 % 49 % 45 % 1021,2 hPa 0,0 l/m 0,6 km/h (0 Bft) W 270 13,9 C 18,0 C 0,0 km/h (0 Bft)
17.06.2019 20:55 22,7 C 20,1 C 20,8 C 27,3 C 19,5 C 18,2 C 67 % 69 % 49 % 44 % 1021,2 hPa 0,0 l/m 0,0 km/h (0 Bft) S-SO 157 14,2 C 18,2 C 0,0 km/h (0 Bft)
17.06.2019 20:50 22,7 C 20,2 C 20,7 C 27,4 C 19,6 C 18,3 C 67 % 69 % 49 % 44 % 1021,2 hPa 0,0 l/m 0,0 km/h (0 Bft) SW 225 14,3 C 18,3 C 0,0 km/h (0 Bft)
17.06.2019 20:45 22,7 C 20,3 C 20,7 C 27,6 C 19,7 C 18,5 C 67 % 68 % 49 % 44 % 1021,2 hPa 0,0 l/m 0,0 km/h (0 Bft) S-SW 202 14,2 C 18,5 C 0,0 km/h (0 Bft)
17.06.2019 20:40 22,7 C 20,4 C 20,7 C 27,7 C 19,8 C 18,6 C 67 % 68 % 49 % 43 % 1021,1 hPa 0,0 l/m 0,0 km/h (0 Bft) S-SW 202 14,3 C 18,6 C 0,0 km/h (0 Bft)
17.06.2019 20:35 22,7 C 20,6 C 20,8 C 27,9 C 20,0 C 18,8 C 67 % 67 % 49 % 42 % 1021,1 hPa 0,0 l/m 0,0 km/h (0 Bft) SW 225 14,3 C 18,8 C 0,0 km/h (0 Bft)
17.06.2019 20:30 22,7 C 20,7 C 20,7 C 28,0 C 20,2 C 19,1 C 67 % 67 % 49 % 43 % 1021,1 hPa 0,0 l/m 0,0 km/h (0 Bft) S-SO 157 14,3 C 19,1 C 0,0 km/h (0 Bft)
17.06.2019 20:25 22,7 C 20,9 C 20,6 C 28,2 C 20,4 C 19,4 C 67 % 66 % 49 % 42 % 1021,1 hPa 0,0 l/m 0,0 km/h (0 Bft) O-NO 67 14,3 C 19,4 C 0,0 km/h (0 Bft)
17.06.2019 20:20 22,8 C 21,0 C 20,6 C 28,3 C 20,5 C 19,6 C 67 % 67 % 49 % 41 % 1020,8 hPa 0,0 l/m 0,0 km/h (0 Bft) S-SO 157 14,6 C 19,6 C 0,0 km/h (0 Bft)
17.06.2019 20:15 22,7 C 21,1 C 20,5 C 28,5 C 20,7 C 19,9 C 67 % 66 % 49 % 41 % 1020,8 hPa 0,0 l/m 0,0 km/h (0 Bft) W-NW 292 14,5 C 19,9 C 0,0 km/h (0 Bft)
17.06.2019 20:10 22,7 C 21,3 C 20,5 C 28,6 C 20,9 C 20,2 C 68 % 66 % 49 % 41 % 1020,8 hPa 0,0 l/m 0,0 km/h (0 Bft) N 360 14,7 C 20,2 C 0,0 km/h (0 Bft)
17.06.2019 20:05 22,7 C 21,5 C 20,4 C 28,7 C 21,2 C 20,6 C 67 % 65 % 49 % 40 % 1020,8 hPa 0,0 l/m 0,0 km/h (0 Bft) W-NW 292 14,6 C 20,6 C 0,0 km/h (0 Bft)
17.06.2019 20:00 22,7 C 21,6 C 20,4 C 28,9 C 21,3 C 20,8 C 67 % 65 % 49 % 40 % 1021,0 hPa 0,0 l/m 0,0 km/h (0 Bft) S-SW 202 14,7 C 20,8 C 0,0 km/h (0 Bft)
17.06.2019 19:55 22,7 C 21,7 C 20,3 C 29,0 C 21,5 C 21,1 C 66 % 64 % 49 % 40 % 1021,0 hPa 0,0 l/m 0,6 km/h (0 Bft) S-SO 157 14,6 C 21,1 C 0,0 km/h (0 Bft)
17.06.2019 19:50 22,6 C 21,7 C 20,3 C 29,1 C 21,5 C 21,2 C 66 % 63 % 49 % 40 % 1021,0 hPa 0,0 l/m 0,6 km/h (0 Bft) S-SO 157 14,3 C 21,2 C 0,0 km/h (0 Bft)
17.06.2019 19:45 22,6 C 21,9 C 20,3 C 29,3 C 21,7 C 21,4 C 66 % 62 % 49 % 40 % 1021,0 hPa 0,0 l/m 0,3 km/h (0 Bft) O-SO 112 14,3 C 21,4 C 0,0 km/h (0 Bft)
17.06.2019 19:40 22,6 C 21,9 C 20,2 C 29,4 C 21,7 C 21,4 C 66 % 62 % 49 % 39 % 1020,9 hPa 0,0 l/m 0,3 km/h (0 Bft) S 180 14,3 C 21,4 C 0,0 km/h (0 Bft)
17.06.2019 19:35 22,7 C 22,0 C 20,2 C 29,6 C 21,8 C 21,4 C 65 % 62 % 49 % 39 % 1020,9 hPa 0,0 l/m 3,2 km/h (1 Bft) NW 315 14,4 C 21,4 C 4,5 km/h (1 Bft)
17.06.2019 19:30 22,6 C 21,9 C 20,1 C 29,7 C 21,7 C 21,3 C 66 % 61 % 49 % 39 % 1020,9 hPa 0,0 l/m 6,1 km/h (2 Bft) SO 135 14,0 C 21,3 C 0,0 km/h (0 Bft)
17.06.2019 19:25 22,6 C 22,0 C 20,0 C 29,9 C 21,8 C 21,3 C 66 % 61 % 49 % 39 % 1020,9 hPa 0,0 l/m 5,5 km/h (2 Bft) SO 135 14,1 C 21,3 C 12,6 km/h (3 Bft)
17.06.2019 19:20 22,6 C 22,1 C 20,0 C 30,0 C 21,8 C 21,3 C 66 % 61 % 49 % 39 % 1020,8 hPa 0,0 l/m 4,2 km/h (1 Bft) SO 135 14,2 C 21,3 C 12,6 km/h (3 Bft)
17.06.2019 19:15 22,6 C 22,2 C 19,9 C 30,2 C 21,9 C 21,3 C 66 % 61 % 49 % 39 % 1020,8 hPa 0,0 l/m 5,1 km/h (1 Bft) S-SW 202 14,3 C 21,3 C 4,8 km/h (1 Bft)
17.06.2019 19:10 22,6 C 22,1 C 19,8 C 30,3 C 21,9 C 21,4 C 66 % 60 % 49 % 39 % 1020,8 hPa 0,0 l/m 5,5 km/h (2 Bft) SO 135 14,0 C 21,4 C 0,0 km/h (0 Bft)
17.06.2019 19:05 22,6 C 22,2 C 19,7 C 30,4 C 22,0 C 21,5 C 67 % 60 % 48 % 39 % 1020,8 hPa 0,0 l/m 3,9 km/h (1 Bft) N-NO 22 14,1 C 21,5 C 3,9 km/h (1 Bft)
17.06.2019 19:00 22,6 C 22,3 C 19,6 C 30,5 C 22,1 C 21,7 C 67 % 60 % 48 % 39 % 1021,0 hPa 0,0 l/m 4,2 km/h (1 Bft) SO 135 14,2 C 21,7 C 5,8 km/h (2 Bft)
17.06.2019 18:55 22,6 C 22,4 C 19,5 C 30,7 C 22,3 C 22,0 C 67 % 59 % 48 % 40 % 1021,0 hPa 0,0 l/m 5,8 km/h (2 Bft) NO 45 14,0 C 22,0 C 0,0 km/h (0 Bft)
17.06.2019 18:50 22,6 C 22,5 C 19,5 C 30,8 C 22,4 C 22,2 C 67 % 59 % 47 % 38 % 1021,0 hPa 0,0 l/m 6,4 km/h (2 Bft) S-SO 157 14,1 C 22,2 C 9,7 km/h (2 Bft)
17.06.2019 18:45 22,6 C 22,7 C 19,4 C 30,9 C 22,7 C 22,6 C 67 % 59 % 46 % 39 % 1021,0 hPa 0,0 l/m 5,1 km/h (1 Bft) S 180 14,3 C 22,6 C 4,5 km/h (1 Bft)
17.06.2019 18:40 22,6 C 22,8 C 19,4 C 31,1 C 22,9 C 22,9 C 67 % 59 % 46 % 38 % 1021,0 hPa 0,0 l/m 6,1 km/h (2 Bft) NO 45 14,4 C 22,9 C 0,0 km/h (0 Bft)
17.06.2019 18:35 22,5 C 22,9 C 19,2 C 31,3 C 22,9 C 22,8 C 66 % 58 % 45 % 38 % 1021,0 hPa 0,0 l/m 6,4 km/h (2 Bft) S 180 14,2 C 22,8 C 3,2 km/h (1 Bft)
17.06.2019 18:30 22,5 C 22,9 C 19,2 C 31,3 C 22,9 C 22,9 C 66 % 58 % 44 % 38 % 1021,0 hPa 0,0 l/m 6,4 km/h (2 Bft) S-SO 157 14,2 C 22,9 C 18,3 km/h (3 Bft)
17.06.2019 18:25 22,5 C 22,9 C 19,2 C 31,4 C 22,9 C 22,8 C 66 % 59 % 44 % 38 % 1021,0 hPa 0,0 l/m 4,8 km/h (1 Bft) O-SO 112 14,5 C 22,8 C 0,0 km/h (0 Bft)
17.06.2019 18:20 22,5 C 23,0 C 19,2 C 31,5 C 23,0 C 23,0 C 65 % 59 % 44 % 38 % 1021,2 hPa 0,0 l/m 4,2 km/h (1 Bft) S 180 14,5 C 23,0 C 16,1 km/h (3 Bft)
17.06.2019 18:15 22,5 C 23,2 C 19,2 C 31,6 C 23,6 C 23,6 C 65 % 59 % 44 % 38 % 1021,2 hPa 0,0 l/m 1,9 km/h (1 Bft) SO 135 14,7 C 23,6 C 13,5 km/h (3 Bft)
17.06.2019 18:10 22,5 C 23,2 C 19,2 C 31,7 C 23,9 C 23,9 C 65 % 59 % 44 % 39 % 1021,2 hPa 0,0 l/m 1,3 km/h (1 Bft) S-SO 157 14,7 C 23,9 C 4,2 km/h (1 Bft)
17.06.2019 18:05 22,5 C 23,3 C 19,3 C 31,8 C 24,3 C 24,3 C 65 % 59 % 44 % 38 % 1021,2 hPa 0,0 l/m 0,6 km/h (0 Bft) O 90 14,8 C 24,3 C 0,0 km/h (0 Bft)
17.06.2019 18:00 22,5 C 23,3 C 19,3 C 31,9 C 24,4 C 24,4 C 65 % 58 % 44 % 38 % 1021,3 hPa 0,0 l/m 0,3 km/h (0 Bft) N 360 14,6 C 24,4 C 0,0 km/h (0 Bft)
17.06.2019 17:55 22,5 C 23,3 C 19,3 C 31,9 C 24,0 C 24,0 C 65 % 59 % 44 % 38 % 1021,3 hPa 0,0 l/m 1,6 km/h (1 Bft) N-NW 337 14,8 C 24,0 C 0,0 km/h (0 Bft)
17.06.2019 17:50 22,5 C 23,2 C 19,3 C 32,1 C 23,5 C 23,5 C 65 % 58 % 44 % 37 % 1021,3 hPa 0,0 l/m 2,6 km/h (1 Bft) NO 45 14,5 C 23,5 C 0,0 km/h (0 Bft)
17.06.2019 17:45 22,5 C 23,1 C 19,3 C 32,2 C 23,3 C 23,3 C 65 % 58 % 44 % 37 % 1021,3 hPa 0,0 l/m 6,8 km/h (2 Bft) SO 135 14,4 C 23,3 C 0,0 km/h (0 Bft)
17.06.2019 17:40 22,5 C 23,0 C 19,4 C 32,3 C 23,3 C 23,3 C 65 % 57 % 44 % 37 % 1021,3 hPa 0,0 l/m 10,6 km/h (2 Bft) O-SO 112 14,0 C 23,3 C 8,7 km/h (2 Bft)
17.06.2019 17:35 22,5 C 23,0 C 19,4 C 32,4 C 23,5 C 23,5 C 65 % 56 % 44 % 37 % 1021,3 hPa 0,0 l/m 10,9 km/h (2 Bft) O-SO 112 13,7 C 23,5 C 22,2 km/h (4 Bft)
17.06.2019 17:30 22,5 C 23,0 C 19,4 C 32,5 C 23,5 C 23,5 C 65 % 54 % 44 % 38 % 1021,3 hPa 0,0 l/m 11,9 km/h (2 Bft) N 360 13,2 C 23,5 C 19,0 km/h (3 Bft)
17.06.2019 17:25 22,5 C 23,1 C 19,4 C 32,7 C 23,0 C 22,8 C 65 % 55 % 44 % 37 % 1021,3 hPa 0,0 l/m 12,6 km/h (3 Bft) SO 135 13,6 C 22,8 C 12,2 km/h (2 Bft)
17.06.2019 17:20 22,6 C 23,1 C 19,4 C 32,9 C 23,0 C 22,7 C 65 % 55 % 44 % 38 % 1021,4 hPa 0,0 l/m 10,0 km/h (2 Bft) S-SO 157 13,6 C 22,7 C 17,1 km/h (3 Bft)
17.06.2019 17:15 22,5 C 23,1 C 19,4 C 33,1 C 23,0 C 22,8 C 65 % 57 % 44 % 38 % 1021,4 hPa 0,0 l/m 6,4 km/h (2 Bft) SO 135 14,1 C 22,8 C 9,3 km/h (2 Bft)
17.06.2019 17:10 22,5 C 23,1 C 19,5 C 33,2 C 23,1 C 23,0 C 65 % 57 % 44 % 39 % 1021,4 hPa 0,0 l/m 8,7 km/h (2 Bft) SO 135 14,1 C 23,0 C 14,2 km/h (3 Bft)
17.06.2019 17:05 22,6 C 23,3 C 19,5 C 33,3 C 23,3 C 23,3 C 65 % 55 % 44 % 39 % 1021,4 hPa 0,0 l/m 10,0 km/h (2 Bft) SO 135 13,7 C 23,3 C 10,0 km/h (2 Bft)
17.06.2019 17:00 22,6 C 23,6 C 19,5 C 33,4 C 23,7 C 23,7 C 65 % 56 % 44 % 38 % 1021,4 hPa 0,0 l/m 7,4 km/h (2 Bft) NO 45 14,3 C 23,7 C 18,7 km/h (3 Bft)
17.06.2019 16:55 22,6 C 23,5 C 19,5 C 33,5 C 24,1 C 24,1 C 65 % 56 % 44 % 39 % 1021,4 hPa 0,0 l/m 3,9 km/h (1 Bft) O-SO 112 14,2 C 24,1 C 6,8 km/h (2 Bft)
17.06.2019 16:50 22,6 C 23,6 C 19,5 C 33,5 C 24,4 C 24,4 C 65 % 56 % 44 % 39 % 1021,4 hPa 0,0 l/m 3,2 km/h (1 Bft) NW 315 14,3 C 24,4 C 0,0 km/h (0 Bft)
17.06.2019 16:45 22,6 C 23,6 C 19,5 C 33,5 C 24,7 C 24,7 C 65 % 55 % 44 % 39 % 1021,4 hPa 0,0 l/m 2,6 km/h (1 Bft) O-SO 112 14,0 C 24,7 C 10,6 km/h (2 Bft)
17.06.2019 16:40 22,6 C 23,5 C 19,5 C 33,5 C 24,6 C 24,6 C 66 % 56 % 44 % 40 % 1021,6 hPa 0,0 l/m 2,9 km/h (1 Bft) SO 135 14,2 C 24,6 C 7,4 km/h (2 Bft)
17.06.2019 16:35 22,5 C 23,5 C 19,5 C 33,7 C 24,1 C 24,1 C 66 % 56 % 44 % 39 % 1021,6 hPa 0,0 l/m 3,2 km/h (1 Bft) W-NW 292 14,2 C 24,1 C 6,4 km/h (2 Bft)
17.06.2019 16:30 22,5 C 23,6 C 19,5 C 33,7 C 24,3 C 24,3 C 66 % 55 % 45 % 39 % 1021,6 hPa 0,0 l/m 2,9 km/h (1 Bft) NW 315 14,0 C 24,3 C 3,9 km/h (1 Bft)
17.06.2019 16:25 22,5 C 23,8 C 19,5 C 33,8 C 24,7 C 24,7 C 66 % 55 % 45 % 39 % 1021,6 hPa 0,0 l/m 2,6 km/h (1 Bft) S-SW 202 14,2 C 24,7 C 0,0 km/h (0 Bft)
17.06.2019 16:20 22,5 C 23,9 C 19,5 C 33,9 C 24,8 C 24,8 C 66 % 55 % 45 % 39 % 1021,5 hPa 0,0 l/m 4,2 km/h (1 Bft) S-SW 202 14,3 C 24,8 C 8,4 km/h (2 Bft)
17.06.2019 16:15 22,5 C 24,1 C 19,5 C 33,9 C 25,0 C 25,0 C 66 % 56 % 45 % 38 % 1021,5 hPa 0,0 l/m 6,1 km/h (2 Bft) O-NO 67 14,8 C 25,0 C 14,2 km/h (3 Bft)
17.06.2019 16:10 22,4 C 24,1 C 19,5 C 34,0 C 25,0 C 25,0 C 66 % 55 % 45 % 38 % 1021,5 hPa 0,0 l/m 6,4 km/h (2 Bft) O-NO 67 14,5 C 25,0 C 3,2 km/h (1 Bft)
17.06.2019 16:05 22,4 C 24,0 C 19,5 C 34,1 C 24,4 C 24,4 C 65 % 54 % 45 % 38 % 1021,5 hPa 0,0 l/m 10,0 km/h (2 Bft) S-SW 202 14,1 C 24,4 C 7,7 km/h (2 Bft)
17.06.2019 16:00 22,4 C 23,9 C 19,5 C 34,1 C 24,2 C 24,2 C 65 % 55 % 45 % 37 % 1021,6 hPa 0,0 l/m 12,9 km/h (3 Bft) O-SO 112 14,3 C 24,2 C 8,0 km/h (2 Bft)
17.06.2019 15:55 22,4 C 23,8 C 19,6 C 34,1 C 24,4 C 24,4 C 65 % 53 % 45 % 38 % 1021,6 hPa 0,0 l/m 15,1 km/h (3 Bft) W-NW 292 13,6 C 24,4 C 31,2 km/h (5 Bft)
17.06.2019 15:50 22,4 C 23,9 C 19,6 C 34,2 C 24,5 C 24,5 C 65 % 54 % 45 % 38 % 1021,6 hPa 0,0 l/m 15,4 km/h (3 Bft) SO 135 14,0 C 24,5 C 19,3 km/h (3 Bft)
17.06.2019 15:45 22,4 C 24,0 C 19,6 C 34,3 C 24,8 C 24,8 C 65 % 54 % 45 % 38 % 1021,6 hPa 0,0 l/m 15,4 km/h (3 Bft) SO 135 14,1 C 24,8 C 31,2 km/h (5 Bft)
17.06.2019 15:40 22,4 C 24,1 C 19,6 C 34,3 C 24,8 C 24,8 C 65 % 53 % 45 % 39 % 1022,0 hPa 0,0 l/m 14,2 km/h (3 Bft) SO 135 13,9 C 24,8 C 22,5 km/h (4 Bft)
17.06.2019 15:35 22,4 C 24,3 C 19,6 C 34,4 C 24,7 C 24,7 C 65 % 54 % 45 % 38 % 1022,0 hPa 0,0 l/m 10,0 km/h (2 Bft) SO 135 14,4 C 24,7 C 20,6 km/h (4 Bft)
17.06.2019 15:30 22,4 C 24,3 C 19,6 C 34,5 C 24,8 C 24,8 C 65 % 54 % 45 % 39 % 1022,0 hPa 0,0 l/m 8,7 km/h (2 Bft) SO 135 14,4 C 24,8 C 26,7 km/h (4 Bft)
17.06.2019 15:25 22,4 C 24,5 C 19,7 C 34,5 C 24,5 C 24,4 C 65 % 54 % 45 % 39 % 1022,0 hPa 0,0 l/m 10,9 km/h (2 Bft) O-NO 67 14,6 C 24,4 C 7,4 km/h (2 Bft)
17.06.2019 15:20 22,4 C 24,5 C 19,7 C 34,6 C 24,4 C 24,3 C 65 % 54 % 45 % 38 % 1022,0 hPa 0,0 l/m 12,9 km/h (3 Bft) S 180 14,6 C 24,3 C 10,0 km/h (2 Bft)
17.06.2019 15:15 22,4 C 24,5 C 19,7 C 34,6 C 24,8 C 24,8 C 65 % 54 % 45 % 39 % 1022,0 hPa 0,0 l/m 10,0 km/h (2 Bft) SO 135 14,6 C 24,8 C 10,9 km/h (2 Bft)
17.06.2019 15:10 22,4 C 24,5 C 19,7 C 34,6 C 25,2 C 25,2 C 65 % 55 % 45 % 40 % 1022,0 hPa 0,0 l/m 8,4 km/h (2 Bft) N-NW 337 14,9 C 25,2 C 17,4 km/h (3 Bft)
17.06.2019 15:05 22,4 C 24,6 C 19,8 C 34,4 C 25,8 C 25,8 C 65 % 55 % 45 % 41 % 1022,0 hPa 0,0 l/m 5,5 km/h (2 Bft) O-NO 67 14,9 C 25,8 C 15,1 km/h (3 Bft)
17.06.2019 15:00 22,4 C 24,6 C 19,8 C 34,3 C 26,2 C 26,2 C 65 % 54 % 45 % 43 % 1021,8 hPa 0,0 l/m 3,2 km/h (1 Bft) SO 135 14,7 C 26,2 C 7,4 km/h (2 Bft)
17.06.2019 14:55 22,4 C 24,6 C 19,8 C 34,2 C 26,5 C 26,5 C 65 % 53 % 45 % 44 % 1021,8 hPa 0,0 l/m 3,5 km/h (1 Bft) O 90 14,4 C 26,5 C 8,7 km/h (2 Bft)
17.06.2019 14:50 22,3 C 24,6 C 19,8 C 34,2 C 26,5 C 26,5 C 65 % 53 % 45 % 44 % 1021,8 hPa 0,0 l/m 2,9 km/h (1 Bft) NW 315 14,4 C 26,5 C 3,2 km/h (1 Bft)
17.06.2019 14:45 22,3 C 24,7 C 19,9 C 34,0 C 26,3 C 26,3 C 65 % 52 % 45 % 44 % 1021,8 hPa 0,0 l/m 4,5 km/h (1 Bft) NW 315 14,2 C 26,3 C 4,2 km/h (1 Bft)
17.06.2019 14:40 22,3 C 24,8 C 19,9 C 34,0 C 26,2 C 26,2 C 64 % 52 % 45 % 44 % 1021,7 hPa 0,0 l/m 4,5 km/h (1 Bft) W 270 14,3 C 26,2 C 0,0 km/h (0 Bft)
17.06.2019 14:35 22,2 C 24,9 C 19,9 C 33,9 C 26,0 C 26,0 C 64 % 51 % 45 % 43 % 1021,7 hPa 0,0 l/m 5,1 km/h (1 Bft) O-SO 112 14,1 C 26,0 C 16,1 km/h (3 Bft)
17.06.2019 14:30 22,2 C 24,8 C 19,9 C 33,7 C 26,2 C 26,2 C 63 % 53 % 45 % 44 % 1021,7 hPa 0,0 l/m 5,8 km/h (2 Bft) W 270 14,6 C 26,2 C 12,9 km/h (3 Bft)
17.06.2019 14:25 22,2 C 25,1 C 20,0 C 33,4 C 27,8 C 27,8 C 64 % 52 % 44 % 43 % 1021,7 hPa 0,0 l/m 6,4 km/h (2 Bft) SO 135 14,5 C 27,8 C 13,8 km/h (3 Bft)
17.06.2019 14:20 22,2 C 25,2 C 20,0 C 33,1 C 28,6 C 28,6 C 64 % 52 % 44 % 45 % 1021,8 hPa 0,0 l/m 5,5 km/h (2 Bft) O 90 14,6 C 28,6 C 10,6 km/h (2 Bft)
17.06.2019 14:15 22,1 C 25,3 C 20,0 C 32,8 C 29,3 C 29,3 C 64 % 51 % 44 % 47 % 1021,8 hPa 0,0 l/m 2,3 km/h (1 Bft) N-NO 22 14,4 C 29,3 C 0,0 km/h (0 Bft)
17.06.2019 14:10 22,1 C 25,5 C 20,1 C 32,6 C 29,3 C 29,3 C 63 % 50 % 44 % 46 % 1021,8 hPa 0,0 l/m 2,9 km/h (1 Bft) S-SO 157 14,3 C 29,3 C 3,9 km/h (1 Bft)
17.06.2019 14:05 22,1 C 25,4 C 20,1 C 32,3 C 28,4 C 28,4 C 64 % 52 % 44 % 44 % 1021,8 hPa 0,0 l/m 4,2 km/h (1 Bft) N 360 14,8 C 28,4 C 0,0 km/h (0 Bft)
17.06.2019 14:00 22,0 C 25,1 C 20,2 C 32,1 C 27,6 C 27,6 C 64 % 52 % 44 % 46 % 1021,6 hPa 0,0 l/m 5,1 km/h (1 Bft) O-NO 67 14,5 C 27,6 C 9,0 km/h (2 Bft)
17.06.2019 13:55 22,0 C 24,7 C 20,2 C 31,8 C 26,2 C 26,2 C 64 % 54 % 44 % 45 % 1021,6 hPa 0,0 l/m 7,4 km/h (2 Bft) O-SO 112 14,8 C 26,2 C 7,4 km/h (2 Bft)
17.06.2019 13:50 22,0 C 24,5 C 20,3 C 31,6 C 25,4 C 25,4 C 64 % 53 % 44 % 46 % 1021,6 hPa 0,0 l/m 8,4 km/h (2 Bft) SO 135 14,3 C 25,4 C 9,7 km/h (2 Bft)
17.06.2019 13:45 22,0 C 24,3 C 20,3 C 31,3 C 25,5 C 25,5 C 64 % 54 % 44 % 46 % 1021,6 hPa 0,0 l/m 9,0 km/h (2 Bft) O-SO 112 14,4 C 25,5 C 26,7 km/h (4 Bft)
17.06.2019 13:40 22,0 C 24,3 C 20,3 C 31,1 C 26,3 C 26,3 C 64 % 54 % 44 % 46 % 1021,8 hPa 0,0 l/m 8,0 km/h (2 Bft) O-NO 67 14,4 C 26,3 C 10,9 km/h (2 Bft)
17.06.2019 13:35 22,0 C 24,6 C 20,4 C 30,7 C 27,6 C 27,6 C 64 % 54 % 44 % 47 % 1021,8 hPa 0,0 l/m 7,4 km/h (2 Bft) N-NO 22 14,7 C 27,6 C 11,9 km/h (2 Bft)
17.06.2019 13:30 21,9 C 24,5 C 20,4 C 30,5 C 27,2 C 27,2 C 64 % 53 % 44 % 48 % 1021,8 hPa 0,0 l/m 7,1 km/h (2 Bft) O-SO 112 14,3 C 27,2 C 3,5 km/h (1 Bft)
17.06.2019 13:25 21,9 C 23,9 C 20,5 C 30,1 C 25,8 C 25,8 C 64 % 54 % 44 % 49 % 1021,8 hPa 0,0 l/m 6,4 km/h (2 Bft) O-SO 112 14,0 C 25,8 C 11,6 km/h (2 Bft)
17.06.2019 13:20 21,9 C 23,8 C 20,5 C 29,8 C 26,4 C 26,4 C 64 % 54 % 44 % 48 % 1022,1 hPa 0,0 l/m 7,1 km/h (2 Bft) SO 135 13,9 C 26,4 C 5,8 km/h (2 Bft)
17.06.2019 13:15 21,9 C 23,9 C 20,6 C 29,4 C 27,7 C 27,7 C 65 % 54 % 44 % 48 % 1022,1 hPa 0,0 l/m 8,0 km/h (2 Bft) SO 135 14,0 C 27,7 C 11,6 km/h (2 Bft)
17.06.2019 13:10 21,9 C 23,9 C 20,6 C 29,2 C 27,8 C 27,8 C 65 % 53 % 44 % 49 % 1022,1 hPa 0,0 l/m 9,7 km/h (2 Bft) S 180 13,7 C 27,8 C 13,5 km/h (3 Bft)
17.06.2019 13:05 21,9 C 23,4 C 20,7 C 28,8 C 26,8 C 26,8 C 65 % 54 % 44 % 49 % 1022,1 hPa 0,0 l/m 8,4 km/h (2 Bft) S-SO 157 13,6 C 26,8 C 10,3 km/h (2 Bft)
17.06.2019 13:00 21,9 C 23,3 C 20,8 C 28,5 C 26,1 C 26,1 C 65 % 54 % 44 % 48 % 1022,2 hPa 0,0 l/m 8,0 km/h (2 Bft) SO 135 13,5 C 26,1 C 17,1 km/h (3 Bft)
17.06.2019 12:55 21,9 C 22,9 C 20,9 C 28,3 C 25,2 C 25,2 C 65 % 56 % 45 % 47 % 1022,2 hPa 0,0 l/m 10,3 km/h (2 Bft) SO 135 13,6 C 25,2 C 7,4 km/h (2 Bft)
17.06.2019 12:50 21,9 C 22,9 C 21,0 C 28,1 C 25,4 C 25,4 C 65 % 56 % 45 % 47 % 1022,2 hPa 0,0 l/m 10,0 km/h (2 Bft) SO 135 13,6 C 25,4 C 11,9 km/h (2 Bft)
17.06.2019 12:45 21,9 C 22,5 C 21,1 C 28,0 C 23,6 C 23,6 C 65 % 58 % 45 % 48 % 1022,2 hPa 0,0 l/m 8,4 km/h (2 Bft) SO 135 13,8 C 23,6 C 15,1 km/h (3 Bft)
17.06.2019 12:40 21,9 C 22,1 C 21,2 C 27,8 C 23,4 C 23,4 C 65 % 58 % 45 % 49 % 1022,2 hPa 0,0 l/m 7,7 km/h (2 Bft) S-SW 202 13,4 C 23,4 C 11,6 km/h (2 Bft)
17.06.2019 12:35 21,9 C 22,1 C 21,4 C 27,7 C 23,9 C 23,9 C 65 % 58 % 46 % 50 % 1022,2 hPa 0,0 l/m 8,0 km/h (2 Bft) N-NO 22 13,4 C 23,9 C 9,0 km/h (2 Bft)
17.06.2019 12:30 21,9 C 22,1 C 21,4 C 27,5 C 24,3 C 24,3 C 65 % 58 % 46 % 50 % 1022,2 hPa 0,0 l/m 10,3 km/h (2 Bft) SO 135 13,4 C 24,3 C 11,3 km/h (2 Bft)
17.06.2019 12:25 21,9 C 22,3 C 21,5 C 27,2 C 25,2 C 25,2 C 65 % 58 % 46 % 49 % 1022,2 hPa 0,0 l/m 10,3 km/h (2 Bft) O 90 13,6 C 25,2 C 12,6 km/h (3 Bft)
17.06.2019 12:20 21,9 C 22,2 C 21,6 C 27,1 C 24,3 C 24,3 C 65 % 59 % 46 % 49 % 1022,6 hPa 0,0 l/m 7,7 km/h (2 Bft) N-NO 22 13,8 C 24,3 C 15,8 km/h (3 Bft)
17.06.2019 12:15 21,9 C 21,8 C 21,9 C 26,9 C 24,5 C 24,5 C 65 % 60 % 47 % 50 % 1022,6 hPa 0,0 l/m 5,5 km/h (2 Bft) N-NW 337 13,7 C 24,5 C 11,3 km/h (2 Bft)
17.06.2019 12:10 21,9 C 21,7 C 21,9 C 26,8 C 24,5 C 24,5 C 65 % 59 % 47 % 51 % 1022,6 hPa 0,0 l/m 4,8 km/h (1 Bft) NO 45 13,3 C 24,5 C 3,5 km/h (1 Bft)
17.06.2019 12:05 21,9 C 21,7 C 21,9 C 26,6 C 24,5 C 24,5 C 65 % 61 % 47 % 51 % 1022,6 hPa 0,0 l/m 4,5 km/h (1 Bft) O-SO 112 13,8 C 24,5 C 0,0 km/h (0 Bft)
17.06.2019 12:00 21,9 C 21,5 C 21,9 C 26,5 C 24,1 C 24,1 C 65 % 61 % 47 % 51 % 1023,3 hPa 0,0 l/m 5,8 km/h (2 Bft) O-NO 67 13,7 C 24,1 C 5,8 km/h (2 Bft)
17.06.2019 11:55 21,9 C 21,2 C 21,9 C 26,4 C 23,3 C 23,3 C 65 % 60 % 47 % 52 % 1023,3 hPa 0,0 l/m 9,0 km/h (2 Bft) O-SO 112 13,1 C 23,3 C 4,2 km/h (1 Bft)
17.06.2019 11:50 21,9 C 21,1 C 21,8 C 26,3 C 22,5 C 22,5 C 65 % 60 % 47 % 52 % 1023,3 hPa 0,0 l/m 8,4 km/h (2 Bft) S-SO 157 13,0 C 22,5 C 8,0 km/h (2 Bft)
17.06.2019 11:45 21,9 C 20,9 C 21,8 C 26,2 C 22,2 C 22,2 C 65 % 64 % 47 % 53 % 1023,3 hPa 0,0 l/m 4,2 km/h (1 Bft) O-SO 112 13,8 C 22,2 C 13,8 km/h (3 Bft)
17.06.2019 11:40 21,9 C 20,9 C 21,8 C 26,2 C 22,1 C 22,1 C 65 % 63 % 47 % 53 % 1022,7 hPa 0,0 l/m 3,5 km/h (1 Bft) N-NO 22 13,6 C 22,1 C 6,1 km/h (2 Bft)
17.06.2019 11:35 21,9 C 20,9 C 21,8 C 26,1 C 21,8 C 21,8 C 65 % 64 % 47 % 53 % 1022,7 hPa 0,0 l/m 3,2 km/h (1 Bft) S-SO 157 13,8 C 21,8 C 8,4 km/h (2 Bft)
17.06.2019 11:30 21,9 C 20,8 C 21,7 C 26,0 C 21,8 C 21,8 C 65 % 64 % 47 % 53 % 1022,7 hPa 0,0 l/m 1,3 km/h (1 Bft) SW 225 13,7 C 21,8 C 0,0 km/h (0 Bft)
17.06.2019 11:25 21,9 C 20,9 C 21,7 C 25,9 C 22,1 C 22,1 C 65 % 65 % 47 % 54 % 1022,7 hPa 0,0 l/m 4,5 km/h (1 Bft) O-SO 112 14,1 C 22,1 C 9,0 km/h (2 Bft)
17.06.2019 11:20 21,9 C 20,9 C 21,7 C 25,8 C 22,2 C 22,2 C 65 % 63 % 47 % 54 % 1022,5 hPa 0,0 l/m 5,1 km/h (1 Bft) O 90 13,6 C 22,2 C 0,0 km/h (0 Bft)
17.06.2019 11:15 21,9 C 21,0 C 21,7 C 25,6 C 22,2 C 22,2 C 65 % 64 % 47 % 54 % 1022,5 hPa 0,0 l/m 2,9 km/h (1 Bft) SO 135 13,9 C 22,2 C 8,0 km/h (2 Bft)
17.06.2019 11:10 21,9 C 20,8 C 21,7 C 25,6 C 22,0 C 22,0 C 65 % 64 % 47 % 55 % 1022,5 hPa 0,0 l/m 2,9 km/h (1 Bft) O-NO 67 13,7 C 22,0 C 0,0 km/h (0 Bft)
17.06.2019 11:05 21,9 C 20,8 C 21,6 C 25,4 C 21,9 C 21,9 C 65 % 64 % 47 % 56 % 1022,5 hPa 0,0 l/m 4,5 km/h (1 Bft) NW 315 13,7 C 21,9 C 8,4 km/h (2 Bft)
17.06.2019 11:00 21,9 C 20,8 C 21,6 C 25,3 C 22,0 C 22,0 C 65 % 63 % 47 % 56 % 1022,6 hPa 0,0 l/m 5,8 km/h (2 Bft) S-SO 157 13,5 C 22,0 C 10,6 km/h (2 Bft)
17.06.2019 10:55 21,9 C 20,8 C 21,6 C 25,1 C 22,2 C 22,2 C 65 % 64 % 47 % 56 % 1022,6 hPa 0,0 l/m 6,8 km/h (2 Bft) O-SO 112 13,7 C 22,2 C 8,0 km/h (2 Bft)
17.06.2019 10:50 21,9 C 20,8 C 21,6 C 24,8 C 22,4 C 22,4 C 65 % 64 % 47 % 56 % 1022,6 hPa 0,0 l/m 4,2 km/h (1 Bft) S 180 13,7 C 22,4 C 8,0 km/h (2 Bft)
17.06.2019 10:45 21,9 C 20,7 C 21,6 C 24,6 C 22,7 C 22,7 C 65 % 64 % 47 % 58 % 1022,6 hPa 0,0 l/m 1,9 km/h (1 Bft) O-NO 67 13,6 C 22,7 C 7,7 km/h (2 Bft)
17.06.2019 10:40 21,9 C 20,7 C 21,6 C 24,3 C 22,8 C 22,8 C 65 % 64 % 47 % 57 % 1022,5 hPa 0,0 l/m 4,5 km/h (1 Bft) SO 135 13,6 C 22,8 C 0,0 km/h (0 Bft)
17.06.2019 10:35 21,9 C 20,7 C 21,6 C 23,9 C 23,6 C 23,6 C 65 % 64 % 47 % 56 % 1022,5 hPa 0,0 l/m 6,4 km/h (2 Bft) SO 135 13,6 C 23,6 C 3,5 km/h (1 Bft)
17.06.2019 10:30 21,9 C 20,7 C 21,6 C 23,6 C 24,7 C 24,7 C 65 % 64 % 47 % 57 % 1022,5 hPa 0,0 l/m 8,0 km/h (2 Bft) O-SO 112 13,6 C 24,7 C 9,3 km/h (2 Bft)
17.06.2019 10:25 21,9 C 20,7 C 21,5 C 23,1 C 26,1 C 26,1 C 65 % 64 % 47 % 57 % 1022,5 hPa 0,0 l/m 10,6 km/h (2 Bft) SO 135 13,6 C 26,1 C 18,0 km/h (3 Bft)
17.06.2019 10:20 21,9 C 20,6 C 21,5 C 22,9 C 26,0 C 26,0 C 65 % 64 % 47 % 57 % 1022,5 hPa 0,0 l/m 9,7 km/h (2 Bft) SO 135 13,5 C 26,0 C 21,9 km/h (4 Bft)
17.06.2019 10:15 21,9 C 20,1 C 21,5 C 22,7 C 24,0 C 24,0 C 65 % 66 % 47 % 57 % 1022,5 hPa 0,0 l/m 6,8 km/h (2 Bft) SO 135 13,5 C 24,0 C 7,7 km/h (2 Bft)
17.06.2019 10:10 21,9 C 19,6 C 21,5 C 22,5 C 22,5 C 22,5 C 65 % 67 % 47 % 58 % 1022,5 hPa 0,0 l/m 5,8 km/h (2 Bft) SO 135 13,3 C 22,5 C 11,6 km/h (2 Bft)
17.06.2019 10:05 21,9 C 19,3 C 21,5 C 22,2 C 21,7 C 21,7 C 65 % 68 % 47 % 58 % 1022,5 hPa 0,0 l/m 5,5 km/h (2 Bft) NO 45 13,2 C 21,7 C 4,5 km/h (1 Bft)
17.06.2019 10:00 21,9 C 19,2 C 21,5 C 22,0 C 21,7 C 21,7 C 65 % 69 % 47 % 58 % 1022,6 hPa 0,0 l/m 5,8 km/h (2 Bft) SO 135 13,4 C 21,7 C 13,2 km/h (3 Bft)
_ Min-Zeit 08:55 07:00 18:35 07:55 05:25 05:30 08:05 14:10 18:30 17:50 09:05 - 08:50 - - 07:00 05:30 09:05
Minimum _ 21,7 C 13,0 C 19,2 C 17,7 C 12,2 C 10,5 C 63 % 50 % 44 % 37 % 1019,6 hPa - 0,0 km/h (0 Bft) - - 10,0 C 10,5 C 0,0 km/h (0 Bft)
_ Max-Zeit 23:35 14:10 12:15 15:20 14:15 14:15 23:05 08:50 09:05 09:05 12:00 09:05 15:50 - - 15:05 14:15 15:55
Maximum _ 22,9 C 25,5 C 21,9 C 34,6 C 29,3 C 29,3 C 70 % 84 % 51 % 60 % 1023,3 hPa 0,0 l/m 15,4 km/h
SO (3 Bft)
- - 14,9 C 29,3 C 31,2 km/h
W-NW (5 Bft)
Durchschnitt _ 22,3 C 18,8 C 20,7 C 24,8 C 19,2 C 18,4 C 66 % 70 % 48 % 49 % 1021,4 hPa #0,0 l/m 3,0 km/h (1 Bft) SO - 12,9 C 18,4 C 4,6 km/h (1 Bft)
© Franz Lackinger